Capitol Logistics 461


KRIV
March Air Reserve Base
Riverside, California, US
KRFD
Chicago/Rockford International Airport
Rockford, Illinois, US

Activity Log

Date Flight Route Aircraft Duration
04/17/2020 CPX219 SKYES4 TRM J236 TBC J128 HBU J10 OBH J100 DBQ B763 3h 08m
09/14/2019 CPX461 SKYES4 TRM J78 PKE J96 IRK J232 MZV RFD B738 3h 31m
01/07/2019 CPX219 TRM J78 PKE J96 IRK J232 MZV RFD B763 3h 10m

Route Details

Aircraft Information
Primary: Boeing 737-800BCF
Backup: Not Available
Route Data
Distance: 1417nm
Sched. Duration: 3h 20m
Avg. Duration: 3h 16m (-3m)
Times Flown: 3
Recm'd Route: TRM J236 TBC J128 HBU J146 IOW RFD
Planned Altitude: 33,000ft
Origin Wx: KRIV 200158Z AUTO 28005KT 10SM CLR 22/14 A2993 RMK AO2 SLP128 T02230144
Dest. Wx: KRFD 200154Z 03007KT 10SM BKN080 OVC090 03/00 A3025 RMK AO2 SLP249 T00280000
Notes:

Financial History
Total Freight: 249,649lbs
Average Load: 83,216lbs/flt
Fuel Used: 89,106lbs
Avg. Fuel Used: 29,702lbs/flt
Fuel Expense: $61,483
Avg. Fuel Expense: $20,494
Avg. Fuel Cost: $0.69/lbs
Total Gross Income: $393,322
Pilot Pay: $717
Total Expenses: $42,635
Total Revenue: $286,838
Average Revenue: $131,107.23